Time;durP1;ratioP1;P1;durP2;ratioP2;P2;SDS_P1;SDS_P2;PMS_P1;PMS_P2;Temp;Humidity;BMP_temperature;BMP_pressure;BME280_temperature;BME280_humidity;BME280_pressure;Samples;Min_cycle;Max_cycle;Signal;HPM_P1;HPM_P2
2022/05/23 00:00:01;;;;;;;0.40;0.40;;;;;;;12.36;69.71;99359.13;4974824;28;20059;-70
2022/05/23 00:02:33;;;;;;;0.80;0.80;;;;;;;12.39;69.42;99359.94;4957342;28;20421;-69
2022/05/23 00:05:09;;;;;;;0.70;0.70;;;;;;;12.26;69.75;99358.41;4974995;28;20404;-69
2022/05/23 00:07:42;;;;;;;0.63;0.63;;;;;;;12.08;69.88;99354.38;4974734;28;20129;-69
2022/05/23 00:10:16;;;;;;;0.43;0.43;;;;;;;11.91;69.50;99350.31;4974615;28;20074;-69
2022/05/23 00:12:45;;;;;;;0.88;0.88;;;;;;;11.83;69.20;99352.94;4974898;28;20496;-69
2022/05/23 00:15:15;;;;;;;0.43;0.43;;;;;;;11.56;69.38;99348.13;4974578;28;20051;-69
2022/05/23 00:17:45;;;;;;;1.00;0.98;;;;;;;11.55;69.62;99343.84;4974567;28;20047;-69
2022/05/23 00:20:24;;;;;;;0.70;0.70;;;;;;;11.59;69.65;99337.84;4974598;28;20101;-69
2022/05/23 00:22:53;;;;;;;0.65;0.65;;;;;;;11.54;70.23;99339.59;4974492;28;20113;-70
2022/05/23 00:25:25;;;;;;;0.50;0.50;;;;;;;11.51;70.53;99344.75;4974534;28;20047;-69
2022/05/23 00:28:08;;;;;;;0.50;0.50;;;;;;;11.50;70.78;99337.94;4974839;28;20063;-69
2022/05/23 00:30:37;;;;;;;0.52;0.52;;;;;;;11.49;70.96;99341.38;4973551;28;20050;-69
2022/05/23 00:35:52;;;;;;;0.65;0.65;;;;;;;11.42;71.25;99324.41;4974553;28;20125;-70
2022/05/23 00:38:22;;;;;;;0.60;0.60;;;;;;;11.59;71.19;99348.06;4974435;28;20085;-70
2022/05/23 00:44:01;;;;;;;0.57;0.57;;;;;;;11.48;71.26;99344.78;4974314;28;20047;-69
2022/05/23 00:46:53;;;;;;;0.68;0.68;;;;;;;11.36;71.36;99357.66;4974370;28;20046;-69
2022/05/23 00:49:26;;;;;;;0.52;0.52;;;;;;;11.20;71.94;99348.47;4973167;28;20065;-69
2022/05/23 00:52:18;;;;;;;0.90;0.70;;;;;;;11.10;72.02;99350.25;4974222;28;20054;-69
2022/05/23 00:55:03;;;;;;;0.95;0.82;;;;;;;10.99;72.43;99344.34;4974124;28;20055;-69
2022/05/23 00:57:49;;;;;;;1.00;0.77;;;;;;;11.03;73.17;99340.09;4973094;28;20571;-70
2022/05/23 01:00:20;;;;;;;1.65;1.15;;;;;;;11.03;73.21;99345.19;4973095;28;20058;-69
2022/05/23 01:02:54;;;;;;;0.73;0.73;;;;;;;11.00;72.77;99340.09;4972972;28;20050;-69
2022/05/23 01:05:28;;;;;;;1.58;1.25;;;;;;;10.98;72.92;99341.81;4974159;28;20078;-69
2022/05/23 01:08:09;;;;;;;0.60;0.60;;;;;;;10.99;73.11;99338.44;4974185;28;20089;-70
2022/05/23 01:10:44;;;;;;;0.65;0.65;;;;;;;10.97;72.79;99335.88;4974062;28;20086;-70
2022/05/23 01:13:17;;;;;;;0.50;0.50;;;;;;;11.10;73.48;99334.06;4973999;28;20055;-70
2022/05/23 01:15:58;;;;;;;0.55;0.55;;;;;;;11.16;72.74;99336.56;4975438;28;20142;-69
2022/05/23 01:18:35;;;;;;;0.45;0.45;;;;;;;11.23;72.92;99340.75;4976731;28;20508;-69
2022/05/23 01:21:06;;;;;;;0.50;0.50;;;;;;;11.34;73.01;99336.41;4977477;28;20054;-69
2022/05/23 01:23:43;;;;;;;0.57;0.57;;;;;;;11.42;72.62;99337.19;4976235;28;20061;-70
2022/05/23 01:26:20;;;;;;;0.50;0.50;;;;;;;11.49;72.47;99335.41;4977685;28;20497;-70
2022/05/23 01:29:22;;;;;;;0.68;0.68;;;;;;;11.60;72.06;99337.00;4976204;28;20050;-69
2022/05/23 01:32:05;;;;;;;0.52;0.52;;;;;;;11.64;71.84;99343.75;4977167;28;20055;-69
2022/05/23 01:34:46;;;;;;;1.00;0.90;;;;;;;11.58;71.45;99340.44;4976038;28;20062;-69
2022/05/23 01:37:22;;;;;;;0.82;0.75;;;;;;;11.61;71.22;99342.97;4977171;28;20126;-69
2022/05/23 01:40:22;;;;;;;0.60;0.60;;;;;;;11.65;70.79;99348.03;4955349;28;20051;-69
2022/05/23 01:43:01;;;;;;;1.73;1.60;;;;;;;11.45;70.83;99340.53;4959857;28;20062;-69
2022/05/23 01:45:37;;;;;;;1.35;1.25;;;;;;;11.38;70.94;99338.91;4976984;28;20082;-69
2022/05/23 01:48:33;;;;;;;0.60;0.60;;;;;;;11.45;70.91;99337.13;4973258;28;20097;-69
2022/05/23 01:51:02;;;;;;;0.57;0.57;;;;;;;11.38;70.90;99338.91;4976829;28;20051;-69
2022/05/23 01:53:31;;;;;;;0.60;0.60;;;;;;;11.21;70.93;99334.81;4959281;28;20043;-69
2022/05/23 01:56:07;;;;;;;0.60;0.60;;;;;;;10.92;71.36;99336.78;4975643;28;20070;-69
2022/05/23 02:01:59;;;;;;;0.85;0.75;;;;;;;10.54;71.80;99330.22;4959547;28;20420;-69
2022/05/23 02:04:33;;;;;;;;;;;;;;;10.46;71.67;99331.97;4976977;28;20483;-70
2022/05/23 02:07:02;;;;;;;0.47;0.47;;;;;;;10.56;71.93;99328.50;4976856;28;20364;-70
2022/05/23 02:09:35;;;;;;;0.52;0.52;;;;;;;10.63;72.33;99322.50;4976600;28;20141;-69
2022/05/23 02:12:11;;;;;;;0.95;0.85;;;;;;;10.63;72.24;99319.94;4976491;28;20055;-70
2022/05/23 02:14:42;;;;;;;0.50;0.50;;;;;;;10.65;72.23;99310.56;4975343;28;20162;-70
2022/05/23 02:17:34;;;;;;;0.47;0.47;;;;;;;10.76;72.73;99316.47;4975649;28;20058;-70
2022/05/23 02:20:08;;;;;;;0.50;0.50;;;;;;;10.77;72.69;99313.03;4959161;28;20054;-70
2022/05/23 02:22:37;;;;;;;1.00;0.50;;;;;;;10.76;72.87;99311.38;4976887;28;20386;-70
2022/05/23 02:25:23;;;;;;;0.70;0.70;;;;;;;10.84;72.63;99318.13;4975849;28;20058;-70
2022/05/23 02:28:01;;;;;;;1.20;1.10;;;;;;;10.82;72.20;99330.06;4976504;28;20062;-68
2022/05/23 02:31:00;;;;;;;0.60;0.60;;;;;;;10.93;72.47;99323.16;4976349;28;20062;-70
2022/05/23 02:34:04;;;;;;;8.93;2.20;;;;;;;10.97;72.06;99324.81;4975802;28;20043;-70
2022/05/23 02:36:45;;;;;;;0.60;0.60;;;;;;;11.06;72.02;99320.47;4974871;28;20074;-70
2022/05/23 02:39:28;;;;;;;0.50;0.50;;;;;;;11.11;71.91;99320.44;4958805;28;20050;-70
2022/05/23 02:42:08;;;;;;;0.60;0.60;;;;;;;11.18;71.15;99309.31;4958789;28;20070;-70
2022/05/23 02:44:39;;;;;;;0.70;0.70;;;;;;;11.20;71.55;99308.44;4975910;28;20069;-70
2022/05/23 02:47:14;;;;;;;0.63;0.63;;;;;;;11.23;71.09;99303.28;4958485;28;20050;-70
2022/05/23 02:49:43;;;;;;;0.70;0.70;;;;;;;11.23;70.78;99299.88;4975817;28;20059;-70
2022/05/23 02:52:22;;;;;;;0.82;0.75;;;;;;;11.13;70.58;99300.84;4958765;28;20444;-70
2022/05/23 02:55:07;;;;;;;0.43;0.43;;;;;;;11.04;70.80;99300.91;4975647;28;20058;-70
2022/05/23 02:57:37;;;;;;;0.45;0.45;;;;;;;10.97;71.01;99305.22;4975668;28;20492;-70
2022/05/23 03:00:16;;;;;;;0.80;0.80;;;;;;;10.86;70.71;99311.28;4976212;28;20078;-70
2022/05/23 03:05:42;;;;;;;0.60;0.60;;;;;;;10.29;71.55;99302.34;4975483;28;20484;-69
2022/05/23 03:08:16;;;;;;;3.67;1.95;;;;;;;10.13;71.69;99310.91;4974167;28;20047;-70
2022/05/23 03:10:50;;;;;;;0.52;0.52;;;;;;;9.83;72.11;99304.22;4974321;28;20047;-69
2022/05/23 03:13:23;;;;;;;0.52;0.52;;;;;;;9.68;72.11;99311.91;4974557;28;20078;-69
2022/05/23 03:15:52;;;;;;;0.73;0.73;;;;;;;9.70;73.01;99311.03;4974229;28;20054;-69
2022/05/23 03:18:26;;;;;;;0.50;0.50;;;;;;;9.75;73.63;99298.28;4975275;28;20276;-69
2022/05/23 03:21:06;;;;;;;0.50;0.50;;;;;;;9.75;73.22;99308.47;4975320;28;20063;-69
2022/05/23 03:29:02;;;;;;;1.50;1.33;;;;;;;9.70;74.49;99305.94;4973995;28;20096;-69
2022/05/23 03:31:31;;;;;;;0.65;0.63;;;;;;;9.74;74.74;99306.81;4973881;28;20050;-69
2022/05/23 03:34:02;;;;;;;0.95;0.88;;;;;;;9.78;74.91;99303.38;4974248;28;20445;-70
2022/05/23 03:36:31;;;;;;;0.40;0.40;;;;;;;9.94;74.05;99315.19;4957863;28;20090;-70
2022/05/23 03:39:04;;;;;;;0.40;0.40;;;;;;;10.00;74.83;99312.66;4974320;28;20047;-70
2022/05/23 03:41:38;;;;;;;0.77;0.77;;;;;;;10.01;74.43;99314.31;4974125;28;20523;-69
2022/05/23 03:44:08;;;;;;;1.02;0.70;;;;;;;10.04;74.36;99311.75;4973770;28;20082;-70
2022/05/23 03:46:38;;;;;;;0.47;0.47;;;;;;;9.98;74.64;99306.72;4957686;28;20059;-70
2022/05/23 03:49:17;;;;;;;1.17;0.88;;;;;;;10.12;75.21;99315.16;4973641;28;20053;-69
2022/05/23 03:51:50;;;;;;;1.10;0.77;;;;;;;10.29;74.86;99317.63;4973642;28;20062;-69
2022/05/23 03:54:19;;;;;;;0.63;0.63;;;;;;;10.48;73.95;99314.97;4973777;28;20061;-70
2022/05/23 03:56:48;;;;;;;0.95;0.90;;;;;;;10.67;74.00;99315.69;4957555;28;20050;-70
2022/05/23 03:59:17;;;;;;;0.50;0.50;;;;;;;10.87;73.74;99318.91;4957608;28;20039;-70
2022/05/23 04:01:57;;;;;;;0.50;0.50;;;;;;;10.90;73.03;99320.59;4973602;28;20061;-70
2022/05/23 04:04:40;;;;;;;0.52;0.52;;;;;;;10.95;72.73;99331.63;4974713;28;20105;-70
2022/05/23 04:07:20;;;;;;;0.82;0.82;;;;;;;11.04;72.63;99331.53;4975055;28;20139;-70
2022/05/23 04:10:01;;;;;;;0.60;0.60;;;;;;;11.14;72.57;99331.47;4957390;28;20051;-70
2022/05/23 04:12:33;;;;;;;0.50;0.50;;;;;;;11.29;71.92;99317.72;4974543;28;20043;-70
2022/05/23 04:15:12;;;;;;;0.60;0.60;;;;;;;11.46;71.37;99320.97;4957445;28;20055;-70
2022/05/23 04:17:42;;;;;;;;;;;;;;;11.59;70.78;99332.72;4975045;28;20050;-70
2022/05/23 04:20:15;;;;;;;0.70;0.70;;;;;;;11.68;70.10;99319.91;4974503;28;20008;-70
2022/05/23 04:23:01;;;;;;;0.77;0.77;;;;;;;11.84;69.64;99318.88;4973431;28;20059;-70
2022/05/23 04:25:31;;;;;;;0.57;0.57;;;;;;;11.96;69.43;99328.94;4973385;28;20047;-70
2022/05/23 04:28:01;;;;;;;0.55;0.55;;;;;;;12.00;68.98;99330.59;4974852;28;20405;-70
2022/05/23 04:30:39;;;;;;;0.50;0.50;;;;;;;12.16;68.43;99330.41;4974701;28;20102;-70
2022/05/23 04:36:02;;;;;;;0.35;0.32;;;;;;;12.54;67.23;99323.06;4974459;28;20114;-70
2022/05/23 04:38:43;;;;;;;0.63;0.63;;;;;;;12.71;66.56;99321.09;4973318;28;20118;-70
2022/05/23 04:41:12;;;;;;;0.50;0.50;;;;;;;12.89;66.57;99323.38;4974402;28;20053;-70
2022/05/23 04:43:53;;;;;;;0.98;0.95;;;;;;;12.94;65.40;99330.97;4974391;28;20061;-70
2022/05/23 04:46:35;;;;;;;0.50;0.50;;;;;;;13.00;65.04;99321.50;4974338;28;20054;-69
2022/05/23 04:49:41;;;;;;;0.60;0.60;;;;;;;13.20;64.65;99327.16;4975668;28;20058;-70
2022/05/23 04:52:23;;;;;;;0.57;0.57;;;;;;;13.35;64.62;99319.19;4977854;28;20039;-70
2022/05/23 04:54:52;;;;;;;0.70;0.70;;;;;;;13.48;64.01;99316.41;4976644;28;20050;-70
2022/05/23 04:57:21;;;;;;;0.50;0.50;;;;;;;13.64;64.00;99310.13;4960602;28;20038;-69
2022/05/23 04:59:51;;;;;;;0.55;0.55;;;;;;;13.78;63.65;99305.56;4976467;28;20102;-70
2022/05/23 05:02:23;;;;;;;0.88;0.88;;;;;;;13.86;63.17;99303.72;4976643;28;20505;-70
2022/05/23 05:05:10;;;;;;;0.95;0.93;;;;;;;13.96;62.67;99310.34;4976649;28;20066;-70
2022/05/23 05:07:55;;;;;;;1.88;0.98;;;;;;;14.10;62.76;99316.03;4977721;28;20145;-70
2022/05/23 05:10:25;;;;;;;0.88;0.88;;;;;;;14.23;62.65;99309.75;4977625;28;20146;-70
2022/05/23 05:12:58;;;;;;;0.77;0.77;;;;;;;14.39;62.86;99315.44;4977699;28;20098;-70
2022/05/23 05:15:28;;;;;;;0.75;0.75;;;;;;;14.53;63.34;99319.41;4976910;28;20051;-71
2022/05/23 05:17:59;;;;;;;2.63;1.02;;;;;;;14.67;63.19;99316.50;4978413;28;20141;-71
2022/05/23 05:20:34;;;;;;;0.70;0.70;;;;;;;14.84;62.97;99318.69;4961438;28;20411;-70
2022/05/23 05:23:15;;;;;;;0.85;0.85;;;;;;;14.91;62.28;99317.66;4979178;28;20051;-70
2022/05/23 05:26:19;;;;;;;0.70;0.70;;;;;;;15.01;62.17;99321.69;4973087;28;20105;-70
2022/05/23 05:28:50;;;;;;;0.80;0.80;;;;;;;15.19;62.12;99323.81;4977390;28;20141;-70
2022/05/23 05:31:26;;;;;;;0.63;0.60;;;;;;;15.30;61.35;99319.25;4976025;28;20062;-71
2022/05/23 05:34:02;;;;;;;0.55;0.55;;;;;;;15.36;60.66;99308.78;4959906;28;20086;-70
2022/05/23 05:36:38;;;;;;;0.82;0.70;;;;;;;15.33;60.13;99308.91;4977134;28;20117;-69
2022/05/23 05:39:09;;;;;;;0.93;0.80;;;;;;;15.37;60.31;99310.50;4977118;28;20063;-70
2022/05/23 05:41:44;;;;;;;0.63;0.63;;;;;;;15.44;60.34;99317.16;4976915;28;20095;-70
2022/05/23 05:44:19;;;;;;;0.70;0.70;;;;;;;15.58;60.66;99322.81;4960147;28;20055;-71
2022/05/23 05:47:00;;;;;;;2.22;1.10;;;;;;;15.80;60.69;99321.34;4975767;28;20077;-71
2022/05/23 05:50:19;;;;;;;1.33;1.23;;;;;;;15.95;60.05;99326.09;4976827;28;20137;-71
2022/05/23 05:53:11;;;;;;;0.93;0.90;;;;;;;15.99;59.32;99322.53;4976605;28;20047;-70
2022/05/23 05:55:45;;;;;;;0.93;0.85;;;;;;;16.03;59.46;99318.13;4959563;28;20054;-70
2022/05/23 05:58:19;;;;;;;10.25;1.83;;;;;;;16.13;59.28;99313.56;4960444;28;20137;-71
2022/05/23 06:00:54;;;;;;;1.35;1.25;;;;;;;16.16;59.36;99318.63;4976112;28;20054;-72
2022/05/23 06:03:27;;;;;;;0.82;0.82;;;;;;;16.19;59.23;99315.97;4976590;28;20056;-70
2022/05/23 06:11:36;;;;;;;0.75;0.75;;;;;;;16.55;57.97;99327.78;4975618;28;20053;-70
2022/05/23 06:14:34;;;;;;;1.02;0.93;;;;;;;16.58;57.68;99323.34;4975488;28;20055;-71
2022/05/23 06:17:08;;;;;;;0.98;0.75;;;;;;;16.58;58.19;99310.47;4976496;28;20458;-69
2022/05/23 06:19:43;;;;;;;0.88;0.88;;;;;;;16.74;58.13;99314.28;4975535;28;20054;-69
2022/05/23 06:22:21;;;;;;;1.05;1.00;;;;;;;16.85;56.90;99311.34;4958965;28;20054;-70
2022/05/23 06:25:04;;;;;;;1.40;1.30;;;;;;;16.90;56.22;99299.16;4976252;28;20058;-70
2022/05/23 06:27:36;;;;;;;1.35;0.90;;;;;;;17.03;55.77;99297.03;4974709;28;20101;-70
2022/05/23 06:30:11;;;;;;;0.60;0.60;;;;;;;17.07;54.57;99286.56;4975299;28;20504;-70
2022/05/23 06:32:54;;;;;;;1.15;1.05;;;;;;;17.18;54.36;99289.59;4974837;28;20065;-69
2022/05/23 06:35:34;;;;;;;0.60;0.60;;;;;;;17.35;53.66;99287.31;4974802;28;20050;-70
2022/05/23 06:38:12;;;;;;;0.60;0.60;;;;;;;17.49;53.11;99293.75;4958752;28;20133;-70
2022/05/23 06:41:04;;;;;;;0.70;0.70;;;;;;;17.65;53.00;99288.00;4975801;28;20051;-69
2022/05/23 06:44:21;;;;;;;1.27;1.17;;;;;;;17.80;52.63;99295.19;4976088;28;20085;-68
2022/05/23 06:47:02;;;;;;;0.60;0.60;;;;;;;17.79;52.31;99287.50;4975722;28;20051;-70
2022/05/23 06:49:54;;;;;;;0.80;0.80;;;;;;;17.88;52.15;99282.84;4930563;28;20524;-69
2022/05/23 06:52:35;;;;;;;1.02;0.93;;;;;;;17.95;52.04;99283.47;4974223;28;20059;-67
2022/05/23 06:55:15;;;;;;;1.85;0.70;;;;;;;18.06;52.15;99291.66;4975410;28;20047;-70
2022/05/23 06:57:47;;;;;;;0.60;0.50;;;;;;;18.14;50.79;99287.03;4958254;28;20082;-69
2022/05/23 07:00:29;;;;;;;0.60;0.60;;;;;;;18.34;50.61;99286.28;4958701;28;20404;-69
2022/05/23 07:03:06;;;;;;;0.88;0.88;;;;;;;18.42;50.63;99287.69;4958093;28;20046;-70
2022/05/23 07:13:45;;;;;;;0.75;0.75;;;;;;;18.74;50.73;99287.28;4957248;28;20047;-69
2022/05/23 07:16:19;;;;;;;;;;;;;;;18.94;50.11;99278.72;4958610;28;20085;-69
2022/05/23 07:18:49;;;;;;;0.50;0.50;;;;;;;19.11;49.58;99271.13;4958293;28;19929;-70
2022/05/23 07:21:27;;;;;;;0.50;0.50;;;;;;;19.21;48.43;99271.56;4974418;28;20149;-68
2022/05/23 07:24:10;;;;;;;0.63;0.63;;;;;;;19.29;47.96;99253.97;4975470;28;20488;-67
2022/05/23 07:27:00;;;;;;;0.65;0.65;;;;;;;19.38;47.50;99261.38;4974571;28;20054;-68
2022/05/23 07:29:29;;;;;;;0.60;0.60;;;;;;;19.42;47.57;99255.16;4957780;28;20094;-69
2022/05/23 07:32:06;;;;;;;0.60;0.60;;;;;;;19.57;46.99;99254.50;4957736;28;20460;-69
2022/05/23 07:34:36;;;;;;;0.50;0.50;;;;;;;19.77;46.00;99257.00;4957730;28;20523;-69
2022/05/23 07:37:05;;;;;;;0.60;0.60;;;;;;;19.90;45.64;99252.97;4957599;28;20043;-70
2022/05/23 07:39:36;;;;;;;;;;;;;;;20.06;45.52;99250.50;4974079;28;20051;-70
2022/05/23 07:42:26;;;;;;;0.82;0.82;;;;;;;20.08;45.16;99250.47;4974778;28;19973;-68
2022/05/23 07:44:55;;;;;;;0.60;0.60;;;;;;;19.99;44.75;99244.78;4974806;28;20122;-69
2022/05/23 07:47:26;;;;;;;0.40;0.40;;;;;;;19.99;43.53;99236.16;4957652;28;20054;-66
2022/05/23 07:50:16;;;;;;;1.17;1.08;;;;;;;19.85;43.48;99229.03;4974709;28;20059;-69
2022/05/23 08:00:31;;;;;;;0.60;0.47;;;;;;;19.93;43.52;99231.28;4973523;28;20074;-69
2022/05/23 08:00:54;;;;;;;0.60;0.60;;;;;;;20.29;43.14;99232.19;4957337;28;20062;-65
2022/05/23 08:03:27;;;;;;;0.52;0.52;;;;;;;20.30;43.24;99230.44;4957368;28;20085;-70
2022/05/23 08:06:05;;;;;;;0.50;0.50;;;;;;;20.36;43.16;99233.56;4957724;28;20082;-69
2022/05/23 08:08:36;;;;;;;0.60;0.60;;;;;;;20.57;43.74;99229.94;4957794;28;20066;-69
2022/05/23 08:11:10;;;;;;;0.50;0.50;;;;;;;20.53;43.38;99220.66;4941884;28;20063;-69
2022/05/23 08:13:55;;;;;;;2.33;1.77;;;;;;;20.60;42.77;99223.78;4957327;28;20062;-70
2022/05/23 08:16:26;;;;;;;1.77;1.23;;;;;;;20.67;42.46;99214.78;4973244;28;20061;-70
2022/05/23 08:19:00;;;;;;;0.98;0.95;;;;;;;20.50;41.95;99214.75;4973293;28;20114;-68
2022/05/23 08:21:32;;;;;;;0.55;0.55;;;;;;;20.45;43.40;99214.97;4963161;28;20493;-72
2022/05/23 08:24:01;;;;;;;0.63;0.63;;;;;;;20.54;43.40;99208.50;4966149;28;20127;-71
2022/05/23 08:26:34;;;;;;;0.40;0.40;;;;;;;20.70;42.67;99210.28;4969595;28;20054;-70
2022/05/23 08:29:03;;;;;;;0.70;0.70;;;;;;;20.87;42.12;99206.88;4958783;29;20422;-70
2022/05/23 08:31:53;;;;;;;0.50;0.50;;;;;;;21.10;41.62;99203.13;4942066;29;20058;-71
2022/05/23 08:34:36;;;;;;;0.45;0.45;;;;;;;21.20;41.27;99197.38;4958944;29;20047;-71
2022/05/23 08:37:06;;;;;;;1.23;1.02;;;;;;;21.17;41.12;99192.34;4950579;28;20058;-71
2022/05/23 08:39:35;;;;;;;0.47;0.47;;;;;;;21.33;41.56;99193.22;4921860;28;20404;-72
2022/05/23 08:42:13;;;;;;;0.70;0.70;;;;;;;21.47;41.12;99189.91;4959214;28;20044;-71
2022/05/23 08:45:12;;;;;;;1.35;1.25;;;;;;;21.63;41.44;99187.34;4958783;28;20054;-69
2022/05/23 08:47:48;;;;;;;0.60;0.60;;;;;;;21.64;40.46;99189.03;4968374;28;20106;-72
2022/05/23 08:50:25;;;;;;;0.40;0.40;;;;;;;21.73;39.92;99183.31;4968607;28;20051;-73
2022/05/23 08:52:58;;;;;;;0.40;0.40;;;;;;;21.74;39.62;99182.41;4963408;28;20047;-67
2022/05/23 08:55:56;;;;;;;0.52;0.52;;;;;;;21.63;39.83;99177.78;4969070;28;20066;-69
2022/05/23 08:58:40;;;;;;;0.50;0.50;;;;;;;21.59;40.37;99180.63;4958518;29;20053;-71
2022/05/23 09:01:13;;;;;;;0.50;0.50;;;;;;;21.47;40.46;99168.31;4958946;29;20073;-70
2022/05/23 09:03:51;;;;;;;0.40;0.40;;;;;;;21.41;40.79;99176.41;4941726;29;20460;-71
2022/05/23 09:06:29;;;;;;;0.50;0.50;;;;;;;21.34;40.43;99176.75;4958815;29;20055;-70
2022/05/23 09:09:01;;;;;;;0.38;0.38;;;;;;;21.34;40.21;99175.91;4958500;29;20055;-71
2022/05/23 09:11:34;;;;;;;0.68;0.60;;;;;;;21.44;40.59;99171.06;4958604;29;20081;-71
2022/05/23 09:14:05;;;;;;;0.95;0.82;;;;;;;21.59;41.48;99176.28;4958339;29;20061;-70
2022/05/23 09:16:40;;;;;;;0.47;0.47;;;;;;;21.77;40.90;99174.44;4957992;29;20106;-71
2022/05/23 09:19:18;;;;;;;1.08;1.05;;;;;;;21.82;40.57;99169.81;4958532;29;20059;-71
2022/05/23 09:24:40;;;;;;;0.47;0.47;;;;;;;21.75;38.90;99178.88;4958147;29;20055;-70
2022/05/23 09:27:15;;;;;;;0.80;0.70;;;;;;;21.70;38.90;99173.09;4958076;29;20074;-70
2022/05/23 09:29:49;;;;;;;0.50;0.50;;;;;;;21.76;39.03;99170.19;4958312;29;20051;-69
2022/05/23 09:32:22;;;;;;;0.50;0.50;;;;;;;21.93;39.15;99170.13;4957992;29;20051;-68
2022/05/23 09:35:02;;;;;;;0.40;0.40;;;;;;;21.94;38.46;99166.59;4957701;28;20089;-70
2022/05/23 09:37:46;;;;;;;0.70;0.70;;;;;;;21.98;38.25;99162.88;4940822;29;20442;-70
2022/05/23 09:40:26;;;;;;;0.50;0.50;;;;;;;22.15;37.94;99160.19;4958153;29;20477;-71
2022/05/23 09:48:29;;;;;;;0.50;0.50;;;;;;;22.20;38.25;99158.19;4977150;28;20551;-69
2022/05/23 09:51:13;;;;;;;0.60;0.60;;;;;;;22.27;38.33;99153.47;4977051;28;20046;-69
2022/05/23 09:53:52;;;;;;;0.70;0.70;;;;;;;22.29;38.09;99155.06;4977207;28;20053;-70
2022/05/23 09:56:39;;;;;;;0.60;0.60;;;;;;;22.33;37.92;99147.94;4975794;28;20061;-69
2022/05/23 09:59:32;;;;;;;5.70;1.13;;;;;;;22.36;38.50;99143.38;4977176;28;20085;-70
2022/05/23 10:02:31;;;;;;;0.55;0.55;;;;;;;22.63;39.09;99140.97;4975821;28;20054;-70
2022/05/23 10:05:33;;;;;;;0.40;0.40;;;;;;;22.83;38.16;99137.22;4976916;28;20046;-69
2022/05/23 10:08:14;;;;;;;0.50;0.50;;;;;;;22.89;38.00;99142.06;4976960;28;20051;-70
2022/05/23 10:10:56;;;;;;;0.50;0.50;;;;;;;22.87;38.08;99128.28;4976577;28;20051;-70
2022/05/23 10:13:29;;;;;;;0.50;0.50;;;;;;;23.05;38.79;99122.00;4975380;28;20138;-73
2022/05/23 10:16:00;;;;;;;1.42;1.15;;;;;;;23.18;38.91;99128.13;4971134;28;20493;-70
2022/05/23 10:18:35;;;;;;;0.50;0.50;;;;;;;23.19;38.21;99129.81;4976353;28;20058;-70
2022/05/23 10:21:21;;;;;;;0.45;0.45;;;;;;;23.11;37.82;99119.84;4971612;28;20063;-70
2022/05/23 10:24:01;;;;;;;0.70;0.70;;;;;;;22.96;37.56;99117.34;4984357;28;20101;-70
2022/05/23 10:26:35;;;;;;;0.60;0.60;;;;;;;22.98;37.96;99115.47;4967694;28;20140;-70
2022/05/23 10:29:10;;;;;;;0.50;0.50;;;;;;;23.11;38.68;99121.59;4959548;28;20523;-70
2022/05/23 10:31:44;;;;;;;1.20;1.10;;;;;;;23.24;38.31;99112.13;4957113;29;20058;-71
2022/05/23 10:34:27;;;;;;;0.40;0.40;;;;;;;23.33;37.62;99115.00;4959939;28;20043;-71
2022/05/23 10:36:57;;;;;;;0.50;0.50;;;;;;;23.39;37.31;99105.19;4956295;28;20079;-70
2022/05/23 10:42:32;;;;;;;0.50;0.50;;;;;;;23.34;37.40;99097.63;4972241;28;20508;-70
2022/05/23 10:45:13;;;;;;;0.43;0.43;;;;;;;23.26;37.29;99099.84;4957111;28;20118;-69
2022/05/23 10:47:56;;;;;;;0.65;0.65;;;;;;;23.09;36.93;99097.44;4959722;28;20074;-70
2022/05/23 10:50:34;;;;;;;0.50;0.50;;;;;;;22.81;36.98;99092.22;4988353;28;20082;-70
2022/05/23 10:53:08;;;;;;;;;;;;;;;22.57;37.39;99090.13;4977387;28;20053;-68
2022/05/23 10:55:45;;;;;;;0.65;0.65;;;;;;;22.65;37.89;99087.13;4967183;28;20372;-70
2022/05/23 10:58:25;;;;;;;5.47;0.90;;;;;;;22.53;38.18;99087.81;4955184;29;20047;-72
2022/05/23 11:01:12;;;;;;;0.65;0.65;;;;;;;22.49;38.71;99068.94;4956230;29;20133;-69
2022/05/23 11:04:19;;;;;;;0.40;0.40;;;;;;;22.73;38.31;99078.81;4956439;29;20055;-69
2022/05/23 11:07:22;;;;;;;0.50;0.50;;;;;;;22.87;38.14;99081.44;4956301;29;20130;-69
2022/05/23 11:10:03;;;;;;;0.75;0.75;;;;;;;22.88;37.88;99088.31;4956433;29;20047;-69
2022/05/23 11:13:01;;;;;;;0.40;0.40;;;;;;;22.83;37.96;99083.41;4956135;29;20059;-70
2022/05/23 11:15:54;;;;;;;0.60;0.60;;;;;;;22.73;37.91;99076.22;4956378;29;20055;-69
2022/05/23 11:18:41;;;;;;;0.65;0.65;;;;;;;22.76;38.40;99078.66;4955894;29;20489;-70
2022/05/23 11:21:14;;;;;;;0.60;0.60;;;;;;;22.78;38.50;99074.19;4956085;29;20051;-69
2022/05/23 11:24:00;;;;;;;0.80;0.80;;;;;;;22.75;38.37;99079.59;4956281;29;20094;-69
2022/05/23 11:26:46;;;;;;;1.15;0.80;;;;;;;22.59;38.47;99051.84;4955038;29;20457;-69
2022/05/23 11:34:59;;;;;;;0.50;0.50;;;;;;;22.63;39.10;99060.31;4956288;29;20110;-71
2022/05/23 11:40:43;;;;;;;0.60;0.60;;;;;;;22.87;39.67;99076.22;4955515;29;20556;-70
2022/05/23 11:43:26;;;;;;;0.50;0.50;;;;;;;23.01;39.64;99081.47;4955672;29;20058;-71
2022/05/23 11:46:02;;;;;;;0.60;0.60;;;;;;;22.95;41.36;99068.81;4955606;29;20055;-71
2022/05/23 11:49:06;;;;;;;0.50;0.50;;;;;;;22.70;40.70;99072.03;4936721;29;20055;-72
2022/05/23 11:51:41;;;;;;;0.60;0.60;;;;;;;22.43;40.98;99060.66;4919639;29;20055;-73
2022/05/23 11:54:31;;;;;;;1.30;1.02;;;;;;;22.32;41.66;99061.28;4936742;29;20082;-70
2022/05/23 11:57:13;;;;;;;0.50;0.50;;;;;;;22.37;41.81;99061.84;4936392;29;20058;-70
2022/05/23 12:00:02;;;;;;;0.55;0.52;;;;;;;22.60;42.61;99057.91;4936184;29;20063;-70
2022/05/23 12:02:41;;;;;;;0.40;0.40;;;;;;;22.51;41.87;99056.66;4935950;29;20056;-70
2022/05/23 12:05:31;;;;;;;0.40;0.40;;;;;;;22.48;42.66;99035.22;4936313;29;20051;-70
2022/05/23 12:08:25;;;;;;;0.50;0.50;;;;;;;22.58;43.14;99052.75;4936517;29;20405;-70
2022/05/23 12:11:03;;;;;;;0.50;0.50;;;;;;;22.44;42.01;99044.94;4936493;29;20142;-74
2022/05/23 12:13:48;;;;;;;0.60;0.60;;;;;;;22.43;42.08;99038.09;4936175;29;20063;-70
2022/05/23 12:16:53;;;;;;;0.63;0.60;;;;;;;22.76;43.28;99043.06;4936504;29;20107;-70
2022/05/23 12:19:33;;;;;;;0.82;0.82;;;;;;;22.96;42.09;99034.06;4915342;29;20064;-71
2022/05/23 12:22:22;;;;;;;1.23;0.90;;;;;;;22.96;41.37;99028.84;4936214;29;20051;-70
2022/05/23 12:25:18;;;;;;;0.50;0.50;;;;;;;23.07;40.88;99016.84;4935915;29;20146;-69
2022/05/23 12:28:14;;;;;;;0.50;0.50;;;;;;;23.19;40.89;99012.63;4936177;29;20044;-69
2022/05/23 12:30:46;;;;;;;0.60;0.60;;;;;;;23.12;41.97;98995.72;4935907;29;20060;-70
2022/05/23 12:33:24;;;;;;;0.50;0.50;;;;;;;23.06;42.02;99022.16;4936305;29;20107;-69
2022/05/23 12:36:00;;;;;;;0.50;0.50;;;;;;;23.02;41.72;99018.88;4935853;29;20066;-70
2022/05/23 12:39:08;;;;;;;0.40;0.40;;;;;;;23.11;41.43;99013.09;4936320;29;20056;-68
2022/05/23 12:41:51;;;;;;;0.55;0.55;;;;;;;23.08;42.24;99010.69;4924217;29;20379;-70
2022/05/23 12:45:01;;;;;;;0.60;0.60;;;;;;;22.84;41.90;98983.59;4935856;29;20102;-69
2022/05/23 12:48:07;;;;;;;0.50;0.50;;;;;;;22.83;42.17;99002.72;4890335;29;20051;-72
2022/05/23 12:51:00;;;;;;;0.50;0.50;;;;;;;22.92;42.55;99007.34;4927673;29;20056;-69
2022/05/23 12:54:10;;;;;;;0.60;0.60;;;;;;;22.86;41.96;99001.69;4935840;29;20056;-71
2022/05/23 12:57:19;;;;;;;0.60;0.60;;;;;;;23.02;42.75;98994.59;4935782;29;20083;-69
2022/05/23 12:59:56;;;;;;;0.40;0.40;;;;;;;23.10;42.48;98985.41;4936216;29;20510;-70
2022/05/23 13:02:31;;;;;;;0.50;0.50;;;;;;;22.95;41.60;98993.31;4935949;29;20433;-68
2022/05/23 13:05:08;;;;;;;0.60;0.60;;;;;;;23.04;42.25;98990.97;4935836;29;20059;-69
2022/05/23 13:07:48;;;;;;;0.63;0.60;;;;;;;23.20;42.46;98983.06;4935617;29;20103;-70
2022/05/23 13:10:23;;;;;;;0.60;0.60;;;;;;;23.37;42.57;98987.22;4936949;29;20079;-70
2022/05/23 13:13:00;;;;;;;0.50;0.50;;;;;;;23.26;42.22;98967.88;4939262;29;20060;-70
2022/05/23 13:15:31;;;;;;;0.60;0.60;;;;;;;23.35;41.82;98979.50;4939037;29;20131;-71
2022/05/23 13:23:46;;;;;;;0.70;0.70;;;;;;;23.24;42.98;98972.34;4939286;29;20052;-72
2022/05/23 13:26:15;;;;;;;0.60;0.50;;;;;;;23.13;43.62;98958.34;4938831;29;20517;-69
2022/05/23 13:29:10;;;;;;;;;;;;;;;23.26;43.62;98964.44;4939584;29;20134;-70
2022/05/23 13:31:39;;;;;;;0.50;0.50;;;;;;;23.45;43.19;98953.69;4938893;29;19933;-70
2022/05/23 13:34:12;;;;;;;0.50;0.50;;;;;;;23.50;41.68;98946.41;4939766;29;20059;-69